Rhinelander-Oneida County Airport

Airport
ICAO code: 
KRHI
Summary
ICAO Region: 
NAM
Territory: 
Location: 
Rhinelander, Wisconsin,
Coordinates: 
Aerial View: 
45° 37' 52" N, 89° 28' 1.999" W
Airport CFIT: 
Altimeter Temperature Error Correction
Airport WX: 
Cumulonimbus
Metar
Observation
KRHI 021553Z AUTO 30007G19KT 10SM OVC027 03/M03 A2973 RMK AO2 SLP081 T00281028
Station
Rhinelander, Rhinelander-Oneida County Airport
Date/Time
2021-12-02 15:53:00
Wind direction
300°
Wind speed
07 kts
Lowest cloud amount
overcast
Temperature
2.8°C
Dew point
-2.8°C
Humidity
66%
Weather condition
n/a

Description

Rhinelander–Oneida County Airport is a public use airport located 4 km southwest of the central business district of Rhinelander, a city in Oneida County, Wisconsin.

Climatology

Humid Continental climate (Köppen climate classification Dfb) - Variable weather patterns and a large seasonal temperature variance. Summers are often warm and humid with frequent thunderstorms and winters can be very cold with frequent snowfall and persistent snow cover.

Runways

Designator Length Width Surface Rops
15/33 1373 30 ASP Yes/Yes
5/23 1707 30 ASP No/No
9/27 2073 46 CON Yes/Yes
Airport map: 
Aerial View: 

SKYbrary Partners:

Safety knowledge contributed by: